This is the latest recevied weather packets stored in our database for station/object SP2WPY-13. If no packets are shown the sender has not sent any weather packets the latest 1 day(s).
| Time | Temp. | Humidity | Pressure | Rain* | Wind** | Luminosity | Snow |
|---|---|---|---|---|---|---|---|
| 1836274639 | 15° C | 100% | 1022.2 hPa | - | 1.34 m/s, 189° | - | - |
| 1836274482 | 15° C | 100% | 1022.2 hPa | - | 1.79 m/s, 201° | - | - |
| 1836274319 | 15° C | 100% | 1022.2 hPa | - | 0.89 m/s, 181° | - | - |
| 1836274208 | 15° C | 100% | 1022.1 hPa | - | 1.34 m/s, 197° | - | - |
| 1836274045 | 15° C | 100% | 1022.3 hPa | - | 2.24 m/s, 200° | - | - |
| 1778010370 | 8.89° C | 100% | 1012.9 hPa | - | 0.89 m/s, 97° | - | - |
| 1778010095 | 8.89° C | 100% | 1012.9 hPa | - | 0.45 m/s, 129° | - | - |
| 1778009776 | 8.89° C | 100% | 1012.9 hPa | - | 0.45 m/s, 45° | - | - |
| 1778009502 | 8.33° C | 100% | 1013 hPa | - | 0.45 m/s, 28° | - | - |
| 1778009181 | 8.33° C | 100% | 1012.9 hPa | - | 0.89 m/s, 27° | - | - |
| 1778008863 | 8.33° C | 100% | 1012.9 hPa | - | 0.89 m/s, 35° | - | - |
| 1778008589 | 8.33° C | 100% | 1012.9 hPa | - | 1.34 m/s, 35° | - | - |
| 1778008268 | 8.33° C | 100% | 1012.8 hPa | - | 1.34 m/s, 42° | - | - |
| 1778007995 | 8.89° C | 100% | 1012.9 hPa | - | 1.34 m/s, 37° | - | - |
| 1778007675 | 8.89° C | 100% | 1012.8 hPa | - | 0.89 m/s, 38° | - | - |
| 1778007401 | 8.89° C | 100% | 1012.9 hPa | - | 1.34 m/s, 26° | - | - |
| 1778007082 | 8.89° C | 100% | 1012.8 hPa | - | 0.89 m/s, 25° | - | - |
| 1778006761 | 8.89° C | 100% | 1012.8 hPa | - | 0.45 m/s, 33° | - | - |
| 1778006488 | 8.89° C | 100% | 1012.8 hPa | - | 0.89 m/s, 108° | - | - |
| 1778006168 | 8.89° C | 100% | 1012.7 hPa | - | 0.89 m/s, 81° | - | - |
| 1778005895 | 8.89° C | 100% | 1012.8 hPa | - | 0.45 m/s, 96° | - | - |
| 1778005575 | 8.89° C | 100% | 1012.8 hPa | - | 0.89 m/s, 127° | - | - |
| 1778005301 | 8.89° C | 100% | 1012.8 hPa | - | 0 m/s | - | - |
| 1778004981 | 8.89° C | 100% | 1012.8 hPa | - | 0.45 m/s, 42° | - | - |
| 1778004662 | 8.89° C | 100% | 1012.8 hPa | - | 0.89 m/s, 36° | - | - |
* Rain since midnight (hover to see other rain measurements)
** Current wind speed in m/s (hover to see current wind gust speed)